EGJA/ACI METAR and TAF weather

Enter ICAO airport designator
Station Type Date Time Source
EGJA METAR 2020/01/20 12:50 UTC NOAA

EGJA 201250Z 05007KT 9999 FEW018 08/03 Q1048


Station Type Date Time Source
EGJA Decoded METAR 2020/01/20 12:50 UTC NOAA

Alderney / Channel Island, United Kingdom (EGJA) 49-43N 002-12W
Jan 20, 2020 - 07:50 AM EST / 2020.01.20 1250 UTC
Wind: from the NE (050 degrees) at 8 MPH (7 KT):0
Visibility: greater than 7 mile(s):0
Sky conditions: mostly clear
Temperature: 46 F (8 C)
Dew Point: 37 F (3 C)
Relative Humidity: 70%
Pressure (altimeter): 30.95 in. Hg (1048 hPa)
ob: EGJA 201250Z 05007KT 9999 FEW018 08/03 Q1048
cycle: 13

Station Type Date Time Source
EGJA TAF UTC NOAA

Error!

Example: see airport list